Terminal Aerodrome Forecast
Issued by NWS

Home | Current Version | Previous Version | Text Only | Print | Product List | Glossary On
Versions: 1 2 3 4 5 6 7 8 9 10 11 12 13 14 15
000
FTUS46 KPDT 272300
TAFALW
TAF
KALW 272334Z 2800/2824 23004KT P6SM FEW090
     FM280400 22009KT P6SM VCSH SCT090 BKN100
     FM280700 23023G35KT P6SM -SHRA BKN050 OVC060
     FM281300 23020G30KT P6SM BKN050
     FM281600 23018KT P6SM SCT050
     FM282100 23014KT P6SM FEW050=

USA.gov is the U.S. government's official web portal to all federal, state and local government web resources and services.